Time;durP1;ratioP1;P1;durP2;ratioP2;P2;SDS_P1;SDS_P2;PMS_P1;PMS_P2;Temp;Humidity;BMP_temperature;BMP_pressure;BME280_temperature;BME280_humidity;BME280_pressure;Samples;Min_cycle;Max_cycle;Signal;HPM_P1;HPM_P2
2022/11/07 00:01:48;;;;;;;7.75;2.90;;;;;;;10.57;100.00;67947.75;5050698;28;20048;-82
2022/11/07 00:04:14;;;;;;;8.65;3.45;;;;;;;10.54;100.00;67944.94;5049530;28;20041;-82
2022/11/07 00:06:40;;;;;;;6.85;3.05;;;;;;;10.51;100.00;67941.53;5051523;28;20044;-82
2022/11/07 00:09:05;;;;;;;5.82;3.00;;;;;;;10.48;100.00;67932.81;5037666;28;20046;-82
2022/11/07 00:11:31;;;;;;;5.50;2.85;;;;;;;10.50;100.00;67940.41;5039695;28;20038;-82
2022/11/07 00:13:56;;;;;;;6.38;3.03;;;;;;;;;;5041508;28;20418;-84
2022/11/07 00:16:21;;;;;;;7.63;3.40;;;;;;;10.54;100.00;67944.94;5040201;28;20052;-82
2022/11/07 00:18:47;;;;;;;6.18;2.97;;;;;;;10.55;100.00;67948.16;5040943;28;20091;-83
2022/11/07 00:21:12;;;;;;;7.68;3.13;;;;;;;;;;5042780;28;20099;-84
2022/11/07 00:23:42;;;;;;;6.20;3.22;;;;;;;10.57;100.00;67947.75;5042030;28;20084;-84
2022/11/07 00:26:09;;;;;;;6.93;3.15;;;;;;;10.59;100.00;67950.59;5056452;28;20044;-83
2022/11/07 00:28:36;;;;;;;4.50;2.70;;;;;;;;;;5064326;28;20029;-83
2022/11/07 00:31:01;;;;;;;5.72;3.10;;;;;;;;;;5067073;28;20037;-84
2022/11/07 00:33:26;;;;;;;6.35;2.92;;;;;;;10.66;100.00;67957.97;5067590;28;20076;-83
2022/11/07 00:35:52;;;;;;;6.68;3.08;;;;;;;10.68;100.00;67960.25;5045972;28;20037;-82
2022/11/07 00:38:17;;;;;;;6.97;2.75;;;;;;;;;;5054377;28;20502;-82
2022/11/07 00:40:42;;;;;;;10.20;3.33;;;;;;;10.70;100.00;67956.63;5054436;28;20120;-82
2022/11/07 00:43:08;;;;;;;8.13;3.35;;;;;;;10.72;100.00;67958.91;5055432;28;20044;-81
2022/11/07 00:45:33;;;;;;;8.32;2.72;;;;;;;10.70;100.00;67961.94;5052850;28;20047;-83
2022/11/07 00:47:58;;;;;;;5.78;2.72;;;;;;;10.70;100.00;67961.94;5034072;28;20132;-81
2022/11/07 00:50:24;;;;;;;10.68;3.20;;;;;;;;;;5047983;28;20043;-82
2022/11/07 00:52:49;;;;;;;6.53;2.30;;;;;;;10.67;100.00;67959.09;5034633;28;20556;-82
2022/11/07 00:55:14;;;;;;;7.82;2.95;;;;;;;;;;5038325;28;20413;-82
2022/11/07 00:57:39;;;;;;;7.60;3.43;;;;;;;10.67;100.00;67958.53;5048802;28;20045;-83
2022/11/07 01:00:05;;;;;;;7.65;3.28;;;;;;;;;;5042671;28;20276;-82
2022/11/07 01:02:30;;;;;;;7.88;3.45;;;;;;;;;;5041821;28;20174;-82
2022/11/07 01:05:10;;;;;;;7.50;3.38;;;;;;;10.64;100.00;67949.81;5037730;28;20076;-82
2022/11/07 01:07:37;;;;;;;8.82;4.05;;;;;;;10.64;100.00;67949.81;5036516;28;20097;-83
2022/11/07 01:10:03;;;;;;;7.07;3.60;;;;;;;;;;5033666;28;20040;-84
2022/11/07 01:12:28;;;;;;;5.00;2.92;;;;;;;10.61;100.00;67952.84;5034367;28;20041;-82
2022/11/07 01:14:54;;;;;;;10.00;3.92;;;;;;;10.60;100.00;67946.41;5052275;28;20049;-83
2022/11/07 01:17:19;;;;;;;8.88;3.28;;;;;;;10.61;100.00;67946.97;5050362;28;20048;-84
2022/11/07 01:19:44;;;;;;;10.07;3.83;;;;;;;;;;5051208;28;20033;-83
2022/11/07 01:22:10;;;;;;;5.82;3.28;;;;;;;;;;5035651;28;20045;-82
2022/11/07 01:24:35;;;;;;;9.25;3.28;;;;;;;;;;5034940;28;20566;-82
2022/11/07 01:27:00;;;;;;;7.28;2.55;;;;;;;10.69;100.00;67955.50;5054429;28;20526;-82
2022/11/07 01:29:26;;;;;;;8.25;3.63;;;;;;;;;;5054083;28;20124;-82
2022/11/07 01:31:51;;;;;;;7.88;2.78;;;;;;;;;;5050237;28;20079;-83
2022/11/07 01:34:17;;;;;;;8.23;3.43;;;;;;;10.73;100.00;67960.03;5045024;28;20056;-82
2022/11/07 01:36:43;;;;;;;6.65;3.00;;;;;;;10.75;100.00;67967.63;5046239;28;20276;-82
2022/11/07 01:39:08;;;;;;;12.95;3.38;;;;;;;10.78;100.00;67965.69;5054305;28;20086;-82
2022/11/07 01:41:35;;;;;;;12.20;4.35;;;;;;;10.78;100.00;67971.03;5055586;28;20060;-83
2022/11/07 01:44:07;;;;;;;8.65;3.25;;;;;;;10.77;100.00;67969.91;5046168;28;20046;-82
2022/11/07 01:46:34;;;;;;;8.40;2.97;;;;;;;10.76;100.00;67968.75;5047102;28;20785;-82
2022/11/07 01:49:05;;;;;;;7.07;2.78;;;;;;;;;;5045965;28;20483;-84
2022/11/07 01:51:34;;;;;;;13.65;3.00;;;;;;;10.73;100.00;67965.34;5048460;28;20441;-85
2022/11/07 01:54:00;;;;;;;7.55;3.22;;;;;;;10.68;100.00;67954.94;5047875;28;20039;-83
2022/11/07 01:56:27;;;;;;;9.00;3.30;;;;;;;;;;5042201;28;20051;-83
2022/11/07 01:58:54;;;;;;;10.80;3.10;;;;;;;;;;5047809;28;20052;-82
2022/11/07 02:01:21;;;;;;;8.45;2.95;;;;;;;10.69;100.00;67961.38;5049082;28;20079;-82
2022/11/07 02:03:48;;;;;;;8.90;2.90;;;;;;;;;;5050714;28;20068;-82
2022/11/07 02:06:21;;;;;;;7.03;3.03;;;;;;;10.70;100.00;67956.63;5050146;28;20045;-82
2022/11/07 02:08:47;;;;;;;8.38;3.28;;;;;;;10.74;100.00;67961.16;5046200;28;20041;-82
2022/11/07 02:11:13;;;;;;;7.22;2.92;;;;;;;10.75;100.00;67967.63;5051605;28;20044;-83
2022/11/07 02:13:38;;;;;;;9.48;3.40;;;;;;;;;;5052187;28;20039;-83
2022/11/07 02:16:04;;;;;;;8.38;3.38;;;;;;;10.83;100.00;67976.72;5047376;28;20072;-83
2022/11/07 02:18:35;;;;;;;6.75;2.95;;;;;;;10.84;100.00;67973.06;5047433;28;20038;-83
2022/11/07 02:21:08;;;;;;;9.43;3.80;;;;;;;10.87;100.00;67980.69;5043110;28;20523;-83
2022/11/07 02:23:47;;;;;;;10.32;3.40;;;;;;;10.88;100.00;67981.81;5033973;28;20038;-82
2022/11/07 02:26:13;;;;;;;8.00;3.28;;;;;;;10.88;100.00;67976.50;5075991;28;20088;-82
2022/11/07 02:28:39;;;;;;;9.40;2.90;;;;;;;10.87;100.00;67975.91;5050143;28;20033;-82
2022/11/07 02:31:05;;;;;;;6.10;2.47;;;;;;;10.89;100.00;67986.19;5036718;28;20041;-82
2022/11/07 02:33:30;;;;;;;7.75;2.95;;;;;;;10.91;100.00;67977.81;5038430;28;20072;-82
2022/11/07 02:35:55;;;;;;;10.00;3.75;;;;;;;10.89;100.00;67982.94;5037385;28;20105;-82
2022/11/07 02:38:22;;;;;;;8.77;3.28;;;;;;;10.88;100.00;67977.06;5053808;28;20040;-83
2022/11/07 02:40:54;;;;;;;7.30;3.13;;;;;;;;;;5038959;28;20052;-82
2022/11/07 02:43:21;;;;;;;7.13;2.90;;;;;;;;;;5050023;28;20048;-83
2022/11/07 02:45:48;;;;;;;9.90;2.80;;;;;;;10.83;100.00;67977.28;5046109;28;20042;-82
2022/11/07 02:48:13;;;;;;;5.95;2.70;;;;;;;;;;5055410;28;20033;-82
2022/11/07 02:50:40;;;;;;;9.10;2.78;;;;;;;10.82;100.00;67975.56;5052242;28;20039;-81
2022/11/07 02:53:05;;;;;;;8.55;2.80;;;;;;;;;;5040861;28;20053;-83
2022/11/07 02:55:30;;;;;;;6.65;3.05;;;;;;;10.77;100.00;67969.91;5050177;28;20068;-82
2022/11/07 02:57:56;;;;;;;12.07;3.28;;;;;;;;;;5044310;28;20596;-82
2022/11/07 03:00:21;;;;;;;9.55;3.08;;;;;;;10.74;100.00;67961.16;5056231;28;20140;-83
2022/11/07 03:02:46;;;;;;;7.47;3.00;;;;;;;;;;5054836;28;20025;-82
2022/11/07 03:05:12;;;;;;;7.20;2.67;;;;;;;;;;5049902;28;20068;-82
2022/11/07 03:07:38;;;;;;;9.40;3.88;;;;;;;;;;5048878;28;20040;-82
2022/11/07 03:10:03;;;;;;;7.47;3.13;;;;;;;10.77;100.00;67970.47;5043338;28;20036;-82
2022/11/07 03:12:29;;;;;;;8.07;2.72;;;;;;;;;;5052976;28;20044;-82
2022/11/07 03:14:54;;;;;;;9.90;2.90;;;;;;;;;;5051189;28;20041;-85
2022/11/07 03:17:19;;;;;;;8.27;3.30;;;;;;;;;;5050292;28;20283;-83
2022/11/07 03:19:45;;;;;;;12.20;3.20;;;;;;;10.81;100.00;67969.66;5046450;28;20294;-81
2022/11/07 03:22:10;;;;;;;6.80;2.80;;;;;;;;;;5049830;28;20284;-84
2022/11/07 03:24:35;;;;;;;8.00;3.50;;;;;;;10.80;100.00;67973.31;5048475;28;20581;-82
2022/11/07 03:27:01;;;;;;;9.95;3.15;;;;;;;10.81;100.00;67974.44;5041878;28;20042;-83
2022/11/07 03:29:26;;;;;;;7.95;2.90;;;;;;;10.80;100.00;67973.31;5050751;28;20037;-82
2022/11/07 03:31:52;;;;;;;10.73;2.83;;;;;;;10.82;100.00;67970.25;5050065;28;20606;-83
2022/11/07 03:34:17;;;;;;;10.43;3.58;;;;;;;;;;5043100;28;20056;-82
2022/11/07 03:36:42;;;;;;;9.57;3.05;;;;;;;10.81;100.00;67974.44;5058205;28;20072;-83
2022/11/07 03:39:07;;;;;;;8.02;3.15;;;;;;;;;;5056211;28;20036;-83
2022/11/07 03:41:33;;;;;;;7.35;2.58;;;;;;;;;;5063494;28;20041;-83
2022/11/07 03:43:58;;;;;;;9.48;3.20;;;;;;;10.80;100.00;67973.88;5060712;28;20071;-83
2022/11/07 03:46:23;;;;;;;7.22;2.83;;;;;;;;;;5059903;28;20044;-83
2022/11/07 03:48:48;;;;;;;10.23;2.80;;;;;;;10.84;100.00;67978.41;5067854;28;20041;-83
2022/11/07 03:51:14;;;;;;;9.55;2.97;;;;;;;;;;5064601;28;20283;-82
2022/11/07 03:53:39;;;;;;;7.82;2.88;;;;;;;10.87;100.00;67981.25;5051350;28;20044;-82
2022/11/07 03:56:07;;;;;;;7.20;3.08;;;;;;;10.89;100.00;67982.94;5048954;28;20036;-82
2022/11/07 03:58:33;;;;;;;8.15;2.63;;;;;;;10.89;100.00;67972.88;5046928;28;20638;-83
2022/11/07 04:00:58;;;;;;;11.75;3.25;;;;;;;;;;5036733;28;20111;-83
2022/11/07 04:03:23;;;;;;;8.40;3.55;;;;;;;10.90;100.00;67984.63;5035960;28;20053;-83
2022/11/07 04:05:48;;;;;;;11.27;3.90;;;;;;;10.87;100.00;67981.25;5040971;28;20052;-82
2022/11/07 04:08:14;;;;;;;10.70;3.88;;;;;;;;;;5055133;28;20100;-83
2022/11/07 04:10:39;;;;;;;12.30;3.30;;;;;;;;;;5055539;28;20037;-82
2022/11/07 04:18:32;;;;;;;9.18;3.60;;;;;;;10.86;100.00;67980.09;5036884;28;20044;-83
2022/11/07 04:20:58;;;;;;;9.95;3.50;;;;;;;;;;5036532;28;20033;-82
2022/11/07 04:23:23;;;;;;;10.30;3.27;;;;;;;;;;5052751;28;20120;-83
2022/11/07 04:28:32;;;;;;;10.77;3.25;;;;;;;10.83;100.00;67977.28;5037619;28;20561;-84
2022/11/07 04:30:58;;;;;;;9.63;2.65;;;;;;;10.82;100.00;67975.56;5040571;28;20041;-83
2022/11/07 04:33:23;;;;;;;8.43;2.67;;;;;;;;;;5046525;28;20032;-84
2022/11/07 04:35:48;;;;;;;7.72;3.10;;;;;;;10.80;100.00;67967.97;5039005;28;20077;-82
2022/11/07 04:38:14;;;;;;;9.40;3.30;;;;;;;10.81;100.00;67969.09;5040490;28;20040;-84
2022/11/07 04:40:39;;;;;;;11.07;3.40;;;;;;;10.81;100.00;67969.66;5046348;28;20034;-82
2022/11/07 04:43:07;;;;;;;9.27;3.20;;;;;;;;;;5045112;28;20120;-83
2022/11/07 04:45:37;;;;;;;8.52;2.92;;;;;;;10.86;100.00;67980.09;5058012;28;20037;-84
2022/11/07 04:48:03;;;;;;;11.77;3.50;;;;;;;10.89;100.00;67978.19;5040297;28;20056;-83
2022/11/07 04:50:28;;;;;;;7.55;2.30;;;;;;;10.93;100.00;67987.47;5044636;28;20041;-83
2022/11/07 04:52:54;;;;;;;10.07;3.22;;;;;;;10.96;100.00;67991.47;5038727;28;20034;-84
2022/11/07 04:55:23;;;;;;;10.80;3.63;;;;;;;11.00;100.00;67990.13;5059077;28;20041;-83
2022/11/07 04:57:48;;;;;;;13.55;3.15;;;;;;;11.03;100.00;67999.41;5052353;28;20116;-83
2022/11/07 05:00:15;;;;;;;8.10;2.63;;;;;;;11.07;100.00;67998.03;5053321;28;20120;-83
2022/11/07 05:02:40;;;;;;;12.50;3.00;;;;;;;;;;5058167;28;20078;-83
2022/11/07 05:05:06;;;;;;;8.18;2.70;;;;;;;;;;5063277;28;20040;-83
2022/11/07 05:07:31;;;;;;;11.43;3.15;;;;;;;11.11;100.00;68002.59;5064593;28;20045;-83
2022/11/07 05:09:56;;;;;;;9.00;2.72;;;;;;;;;;5058817;28;20049;-83
2022/11/07 05:12:22;;;;;;;8.93;3.43;;;;;;;11.11;100.00;68002.03;5054439;28;20045;-83
2022/11/07 05:14:47;;;;;;;10.57;2.63;;;;;;;11.06;100.00;67996.91;5041680;28;20304;-83
2022/11/07 05:17:16;;;;;;;9.25;3.22;;;;;;;;;;5055789;28;20037;-83
2022/11/07 05:19:44;;;;;;;10.95;3.17;;;;;;;11.02;100.00;67992.94;5052273;28;20383;-83
2022/11/07 05:24:54;;;;;;;9.27;2.95;;;;;;;;;;5061549;28;20146;-82
2022/11/07 05:27:21;;;;;;;9.52;3.20;;;;;;;10.91;100.00;67985.78;5051614;28;20253;-82
2022/11/07 05:29:47;;;;;;;10.45;3.35;;;;;;;10.93;100.00;67982.16;5047662;28;20048;-82
2022/11/07 05:32:12;;;;;;;12.27;3.78;;;;;;;;;;5051730;28;20041;-81
2022/11/07 05:34:38;;;;;;;10.10;3.00;;;;;;;10.92;100.00;67992.25;5048840;28;20037;-85
2022/11/07 05:37:08;;;;;;;11.48;3.20;;;;;;;10.94;100.00;67989.19;5046905;28;20036;-83
2022/11/07 05:39:34;;;;;;;13.80;3.47;;;;;;;10.94;100.00;67983.88;5039940;28;20044;-81
2022/11/07 05:42:00;;;;;;;11.57;3.30;;;;;;;;;;5030920;28;20172;-82
2022/11/07 05:44:25;;;;;;;12.15;3.25;;;;;;;10.94;100.00;67983.31;5042570;28;20120;-84
2022/11/07 05:46:50;;;;;;;12.32;3.00;;;;;;;10.95;100.00;67990.31;5038157;28;20084;-82
2022/11/07 05:49:16;;;;;;;10.98;3.10;;;;;;;10.96;100.00;67986.16;5043369;28;20041;-82
2022/11/07 05:51:42;;;;;;;5.75;2.20;;;;;;;10.97;100.00;67992.59;5041744;28;20512;-82
2022/11/07 05:54:07;;;;;;;12.65;3.25;;;;;;;;;;5045596;28;20045;-83
2022/11/07 05:56:32;;;;;;;12.07;2.88;;;;;;;11.00;100.00;67995.44;5050763;28;20044;-82
2022/11/07 05:58:58;;;;;;;13.60;3.30;;;;;;;;;;5040032;28;20037;-83
2022/11/07 06:01:23;;;;;;;10.73;2.80;;;;;;;11.05;100.00;67996.34;5045982;28;20171;-83
2022/11/07 06:03:48;;;;;;;7.28;2.58;;;;;;;;;;5040171;28;20040;-82
2022/11/07 06:06:13;;;;;;;15.40;4.03;;;;;;;11.08;100.00;67999.19;5039787;28;20060;-83
2022/11/07 06:08:39;;;;;;;14.38;3.17;;;;;;;;;;5048813;28;20051;-84
2022/11/07 06:11:04;;;;;;;8.15;2.55;;;;;;;11.14;100.00;68005.44;5033113;28;20040;-84
2022/11/07 06:13:30;;;;;;;11.77;2.45;;;;;;;;;;5038670;28;20513;-84
2022/11/07 06:15:56;;;;;;;9.35;3.08;;;;;;;11.14;100.00;68005.44;5037756;28;20071;-85
2022/11/07 06:18:21;;;;;;;8.98;2.58;;;;;;;11.12;100.00;68000.50;5040222;28;20041;-84
2022/11/07 06:20:47;;;;;;;12.82;2.70;;;;;;;;;;5041588;28;20048;-84
2022/11/07 06:23:12;;;;;;;21.42;3.85;;;;;;;11.13;100.00;68001.63;5039771;28;20041;-85
2022/11/07 06:25:38;;;;;;;12.23;3.35;;;;;;;11.12;100.00;68008.50;5045705;28;20176;-84
2022/11/07 06:28:05;;;;;;;6.75;2.55;;;;;;;;;;5050534;28;20048;-84
2022/11/07 06:30:30;;;;;;;10.57;2.95;;;;;;;11.12;100.00;68003.16;5050174;28;20040;-84
2022/11/07 06:32:59;;;;;;;15.50;2.75;;;;;;;11.11;100.00;68010.59;5051740;28;20045;-85
2022/11/07 06:35:25;;;;;;;10.65;2.40;;;;;;;11.11;100.00;68007.38;5054288;28;20514;-84
2022/11/07 06:37:50;;;;;;;11.55;2.97;;;;;;;11.11;100.00;67999.94;5048223;28;20093;-84
2022/11/07 06:40:16;;;;;;;8.27;2.50;;;;;;;11.10;100.00;68001.44;5045070;28;20048;-84
2022/11/07 06:42:41;;;;;;;9.57;3.10;;;;;;;11.11;100.00;68002.59;5050032;28;20036;-84
2022/11/07 06:45:06;;;;;;;8.20;2.20;;;;;;;;;;5052221;28;20041;-84
2022/11/07 06:47:32;;;;;;;9.40;2.85;;;;;;;11.12;100.00;68003.16;5039752;28;20053;-84
2022/11/07 06:49:57;;;;;;;7.88;2.92;;;;;;;;;;5034632;28;20034;-84
2022/11/07 06:52:22;;;;;;;14.80;3.00;;;;;;;;;;5045526;28;20059;-85
2022/11/07 06:54:48;;;;;;;12.85;3.33;;;;;;;11.12;100.00;68003.16;5038911;28;20053;-84
2022/11/07 06:57:13;;;;;;;7.35;2.38;;;;;;;;;;5041136;28;20041;-85
2022/11/07 06:59:38;;;;;;;11.47;2.40;;;;;;;;;;5051282;28;20607;-84
2022/11/07 07:02:03;;;;;;;11.05;3.20;;;;;;;11.14;100.00;68005.44;5037315;28;20783;-86
2022/11/07 07:04:28;;;;;;;10.32;3.03;;;;;;;;;;5039208;28;20126;-85
2022/11/07 07:06:54;;;;;;;14.30;4.20;;;;;;;11.15;100.00;68006.56;5039019;28;20044;-85
2022/11/07 07:09:19;;;;;;;9.38;2.30;;;;;;;;;;5039472;28;20356;-85
2022/11/07 07:11:44;;;;;;;12.07;3.10;;;;;;;11.15;100.00;68011.91;5029291;28;20072;-85
2022/11/07 07:14:10;;;;;;;10.13;2.97;;;;;;;11.14;100.00;68010.78;5035823;28;20274;-85
2022/11/07 07:16:36;;;;;;;8.48;2.67;;;;;;;11.15;100.00;68011.91;5030018;28;20045;-85
2022/11/07 07:19:02;;;;;;;8.65;2.50;;;;;;;;;;5029945;28;20107;-85
2022/11/07 07:21:28;;;;;;;12.68;2.97;;;;;;;11.14;100.00;68011.34;5039279;28;20045;-85
2022/11/07 07:23:53;;;;;;;10.63;2.80;;;;;;;11.16;100.00;68013.03;5036329;28;20045;-85
2022/11/07 07:26:18;;;;;;;13.27;3.05;;;;;;;11.16;100.00;68007.69;5040539;28;20375;-86
2022/11/07 07:28:44;;;;;;;8.57;2.90;;;;;;;;;;5040697;28;20045;-85
2022/11/07 07:31:12;;;;;;;9.27;2.67;;;;;;;11.17;100.00;68014.16;5034159;28;20045;-86
2022/11/07 07:33:38;;;;;;;13.57;2.90;;;;;;;11.16;100.00;68007.69;5036764;28;20393;-86
2022/11/07 07:36:04;;;;;;;14.13;2.90;;;;;;;11.18;100.00;68010.53;5032589;28;20041;-86
2022/11/07 07:38:29;;;;;;;8.82;3.20;;;;;;;;;;5031583;28;20450;-86
2022/11/07 07:40:57;;;;;;;9.52;2.50;;;;;;;11.22;100.00;68014.50;5031234;28;20043;-86
2022/11/07 07:43:22;;;;;;;9.93;2.20;;;;;;;;;;5029107;28;20034;-86
2022/11/07 07:45:47;;;;;;;11.93;2.63;;;;;;;11.25;100.00;68015.25;5037789;28;20656;-86
2022/11/07 07:48:13;;;;;;;12.50;2.63;;;;;;;;;;5042778;28;20063;-85
2022/11/07 07:50:38;;;;;;;6.77;2.37;;;;;;;11.27;100.00;68025.50;5034611;28;20064;-85
2022/11/07 07:53:03;;;;;;;10.23;3.47;;;;;;;11.30;100.00;68023.59;5041861;28;20260;-85
2022/11/07 07:55:29;;;;;;;13.65;2.95;;;;;;;11.30;100.00;68029.47;5034216;28;20037;-85
2022/11/07 07:57:54;;;;;;;10.35;3.05;;;;;;;11.36;100.00;68030.41;5039529;28;20037;-85
2022/11/07 08:00:19;;;;;;;12.70;3.25;;;;;;;11.40;100.00;68034.38;5036345;28;20513;-85
2022/11/07 08:02:45;;;;;;;10.65;2.95;;;;;;;11.42;100.00;68037.22;5031582;28;20074;-85
2022/11/07 08:05:11;;;;;;;12.93;3.25;;;;;;;11.47;100.00;68042.34;5037719;28;20146;-85
2022/11/07 08:07:43;;;;;;;9.70;2.08;;;;;;;;;;5039504;28;20034;-85
2022/11/07 08:10:09;;;;;;;9.32;2.40;;;;;;;;;;5046122;28;20044;-85
2022/11/07 08:12:34;;;;;;;9.88;2.10;;;;;;;11.52;100.00;68053.91;5039290;28;20045;-85
2022/11/07 08:15:00;;;;;;;8.48;2.10;;;;;;;11.55;100.00;68056.19;5034327;28;20466;-86
2022/11/07 08:17:25;;;;;;;9.57;2.90;;;;;;;11.58;100.00;68054.25;5044852;28;20045;-85
2022/11/07 08:19:50;;;;;;;11.98;2.40;;;;;;;11.58;100.00;68054.25;5046257;28;20041;-85
2022/11/07 08:22:16;;;;;;;12.77;3.10;;;;;;;;;;5040650;28;20132;-85
2022/11/07 08:24:42;;;;;;;11.80;2.75;;;;;;;11.63;100.00;68059.94;5044855;28;20048;-85
2022/11/07 08:27:07;;;;;;;9.65;3.17;;;;;;;11.68;100.00;68070.94;5048060;28;20041;-85
2022/11/07 08:29:32;;;;;;;11.85;3.20;;;;;;;11.72;100.00;68068.06;5051338;28;20048;-85
2022/11/07 08:31:58;;;;;;;11.98;2.40;;;;;;;11.72;100.00;68068.06;5050252;28;20128;-85
2022/11/07 08:34:23;;;;;;;15.07;2.85;;;;;;;11.75;100.00;68074.13;5048716;28;20033;-86
2022/11/07 08:36:48;;;;;;;10.68;2.58;;;;;;;;;;5048071;28;20095;-85
2022/11/07 08:39:13;;;;;;;12.03;3.40;;;;;;;;;;5050227;28;20108;-85
2022/11/07 08:41:39;;;;;;;13.13;2.67;;;;;;;11.83;100.00;68082.66;5036073;28;20288;-86
2022/11/07 08:44:07;;;;;;;8.45;2.80;;;;;;;11.85;100.00;68084.34;5037881;28;20272;-85
2022/11/07 08:46:32;;;;;;;8.40;2.30;;;;;;;11.85;100.00;68084.94;5039532;28;20063;-86
2022/11/07 08:48:57;;;;;;;12.63;3.28;;;;;;;11.91;100.00;68096.53;5039802;28;20490;-86
2022/11/07 08:51:23;;;;;;;11.40;2.55;;;;;;;11.93;100.00;68098.78;5029025;28;20068;-86
2022/11/07 08:53:48;;;;;;;11.32;2.72;;;;;;;12.00;100.00;68100.84;5065609;23;20048;-78
2022/11/07 08:56:13;;;;;;;10.85;2.65;;;;;;;12.03;100.00;68104.28;5072841;28;20040;-78
2022/11/07 08:58:38;;;;;;;9.18;2.53;;;;;;;;;;5074040;28;20060;-78
2022/11/07 09:01:08;;;;;;;9.20;1.98;;;;;;;12.07;100.00;68108.81;5072809;28;20058;-78
2022/11/07 09:03:35;;;;;;;10.07;2.10;;;;;;;12.08;100.00;68115.28;5064466;28;20132;-77
2022/11/07 09:06:01;;;;;;;8.30;2.92;;;;;;;;;;5053094;28;20045;-78
2022/11/07 09:08:26;;;;;;;11.68;2.92;;;;;;;12.16;99.95;68124.94;5054441;28;20187;-77
2022/11/07 09:10:52;;;;;;;11.15;2.55;;;;;;;12.23;99.83;68127.00;5053113;28;20080;-77
2022/11/07 09:13:19;;;;;;;13.75;2.17;;;;;;;12.32;99.57;68137.22;5053810;28;20041;-77
2022/11/07 09:15:44;;;;;;;8.43;2.00;;;;;;;12.32;98.58;68137.22;5053392;28;20409;-78
2022/11/07 09:18:10;;;;;;;7.22;1.92;;;;;;;12.32;98.43;68137.22;5054041;28;20041;-78
2022/11/07 09:20:36;;;;;;;11.48;2.10;;;;;;;;;;5052858;28;20037;-78
2022/11/07 09:23:01;;;;;;;9.32;1.98;;;;;;;;;;5054363;28;20045;-78
2022/11/07 09:25:26;;;;;;;10.85;2.30;;;;;;;12.38;99.02;68143.47;5053845;28;20048;-77
2022/11/07 09:27:52;;;;;;;10.38;2.88;;;;;;;12.41;98.95;68147.44;5050335;28;20109;-78
2022/11/07 09:30:19;;;;;;;9.77;2.22;;;;;;;12.43;98.79;68146.47;5054245;28;20624;-78
2022/11/07 09:32:45;;;;;;;10.50;2.75;;;;;;;12.48;98.81;68154.25;5050156;28;20112;-78
2022/11/07 09:35:10;;;;;;;11.38;2.75;;;;;;;;;;5064732;28;20651;-77
2022/11/07 09:37:39;;;;;;;12.43;2.45;;;;;;;12.53;98.85;68160.50;5050182;28;20033;-78
2022/11/07 09:40:15;;;;;;;11.35;2.30;;;;;;;12.53;98.99;68165.84;5051648;28;20048;-78
2022/11/07 09:43:07;;;;;;;10.27;2.53;;;;;;;12.54;99.41;68161.06;5052319;28;20040;-78
2022/11/07 09:45:36;;;;;;;9.35;2.30;;;;;;;;;;5075457;28;20040;-78
2022/11/07 09:48:13;;;;;;;9.82;2.58;;;;;;;12.64;99.40;68172.44;5052530;28;20036;-78
2022/11/07 09:50:40;;;;;;;8.40;2.38;;;;;;;;;;5051352;28;20135;-78
2022/11/07 09:53:16;;;;;;;11.43;2.42;;;;;;;12.71;98.63;68180.38;5052084;28;20037;-78
2022/11/07 09:55:50;;;;;;;7.45;2.30;;;;;;;12.71;99.09;68180.38;5051980;28;20041;-78
2022/11/07 09:58:25;;;;;;;9.40;2.25;;;;;;;12.74;99.14;68183.22;5080927;28;20056;-78
2022/11/07 10:00:50;;;;;;;8.30;2.50;;;;;;;;;;5067038;28;20041;-78
2022/11/07 10:03:16;;;;;;;8.07;2.70;;;;;;;12.78;99.04;68187.78;5051629;28;20097;-78
2022/11/07 10:06:00;;;;;;;10.60;2.38;;;;;;;12.78;99.14;68188.34;5045444;28;20036;-78
2022/11/07 10:08:36;;;;;;;7.88;2.13;;;;;;;;;;5081287;28;20128;-78
2022/11/07 10:11:21;;;;;;;10.93;2.53;;;;;;;12.84;99.17;68192.50;5052913;28;20049;-78
2022/11/07 10:13:57;;;;;;;9.77;2.35;;;;;;;12.87;99.29;68198.59;5050102;28;20040;-78
2022/11/07 10:16:46;;;;;;;8.95;1.70;;;;;;;12.91;99.24;68202.00;5049937;28;20049;-78
2022/11/07 10:19:40;;;;;;;10.00;2.10;;;;;;;12.92;98.96;68200.44;5050496;28;20048;-78
2022/11/07 10:22:33;;;;;;;10.77;2.70;;;;;;;12.93;98.82;68209.63;5052049;28;20048;-78
2022/11/07 10:25:40;;;;;;;8.38;2.40;;;;;;;13.00;99.13;68212.22;5051203;28;20040;-78
2022/11/07 10:28:06;;;;;;;11.65;2.50;;;;;;;13.02;98.98;68214.50;5051835;28;20044;-78
2022/11/07 10:30:31;;;;;;;8.82;2.35;;;;;;;13.04;99.04;68216.78;5052762;28;20041;-78
2022/11/07 10:33:34;;;;;;;12.13;2.47;;;;;;;13.04;98.38;68217.34;5051636;28;20041;-78
2022/11/07 10:36:07;;;;;;;10.80;2.58;;;;;;;13.07;98.50;68220.19;5048204;28;20036;-78
2022/11/07 10:38:34;;;;;;;9.77;2.70;;;;;;;13.07;98.67;68220.75;5052110;28;20029;-78
2022/11/07 10:40:59;;;;;;;11.23;3.38;;;;;;;13.12;98.60;68225.88;5051046;28;20033;-78
2022/11/07 10:43:28;;;;;;;10.90;2.33;;;;;;;;;;5067743;28;20421;-78
2022/11/07 10:45:54;;;;;;;15.25;2.78;;;;;;;13.18;97.94;68232.69;5051207;28;20090;-78
2022/11/07 10:48:19;;;;;;;9.48;2.97;;;;;;;13.18;97.83;68232.69;5053140;28;20044;-78
2022/11/07 10:50:52;;;;;;;10.95;2.53;;;;;;;13.23;98.16;68235.13;5052598;28;20037;-78
2022/11/07 10:53:18;;;;;;;10.52;2.58;;;;;;;;;;5048978;28;20106;-78
2022/11/07 10:55:45;;;;;;;8.60;1.80;;;;;;;;;;5052176;28;20048;-78
2022/11/07 10:58:29;;;;;;;8.60;1.70;;;;;;;13.26;98.13;68241.25;5048209;28;20060;-78
2022/11/07 11:00:58;;;;;;;10.23;2.05;;;;;;;;;;5051089;28;20485;-78
2022/11/07 11:03:25;;;;;;;9.90;2.70;;;;;;;;;;5051244;28;20671;-78
2022/11/07 11:05:50;;;;;;;8.52;2.30;;;;;;;13.35;97.87;68256.84;5050738;28;20585;-78
2022/11/07 11:08:18;;;;;;;8.35;2.20;;;;;;;13.37;98.06;68259.09;5053724;28;20127;-78
2022/11/07 11:10:44;;;;;;;10.32;2.42;;;;;;;13.37;97.24;68253.19;5052741;28;20033;-78
2022/11/07 11:13:29;;;;;;;7.45;1.98;;;;;;;;;;5052000;28;20037;-78
2022/11/07 11:15:55;;;;;;;9.75;3.33;;;;;;;;;;5051681;28;20080;-78
2022/11/07 11:18:20;;;;;;;9.00;2.33;;;;;;;;;;5051892;28;20036;-78
2022/11/07 11:20:55;;;;;;;8.45;2.50;;;;;;;13.35;97.46;68250.91;5053260;28;20037;-78
2022/11/07 11:23:24;;;;;;;9.18;1.98;;;;;;;13.37;97.10;68253.19;5053029;28;20105;-78
2022/11/07 11:25:51;;;;;;;12.00;2.37;;;;;;;13.41;97.12;68257.75;5052464;28;20041;-78
2022/11/07 11:28:43;;;;;;;7.57;2.30;;;;;;;13.42;96.78;68258.88;5046843;28;20688;-78
2022/11/07 11:31:20;;;;;;;8.25;1.90;;;;;;;13.41;96.52;68263.66;5053084;28;20069;-78
2022/11/07 11:34:15;;;;;;;9.80;2.58;;;;;;;13.42;96.78;68258.88;5052103;28;20072;-78
2022/11/07 11:36:49;;;;;;;7.82;2.33;;;;;;;13.42;96.86;68258.88;5058661;28;20037;-78
2022/11/07 11:39:25;;;;;;;10.32;2.65;;;;;;;;;;5052585;28;20039;-78
2022/11/07 11:41:56;;;;;;;9.60;2.33;;;;;;;13.45;97.11;68262.28;5053235;28;20079;-78
2022/11/07 11:44:39;;;;;;;10.38;2.47;;;;;;;;;;5052005;28;20059;-78
2022/11/07 11:47:26;;;;;;;9.68;2.60;;;;;;;13.56;97.35;68274.81;5054009;28;20401;-78
2022/11/07 11:49:53;;;;;;;12.25;2.47;;;;;;;;;;5053140;28;20061;-78
2022/11/07 11:52:21;;;;;;;8.43;1.95;;;;;;;13.65;96.56;68284.47;5053380;28;20112;-78
2022/11/07 11:54:48;;;;;;;16.25;3.38;;;;;;;;;;5051199;28;20456;-78
2022/11/07 11:57:16;;;;;;;9.65;2.55;;;;;;;;;;5053765;28;20040;-78
2022/11/07 11:59:44;;;;;;;12.30;2.88;;;;;;;;;;5075092;28;20039;-78
2022/11/07 12:02:30;;;;;;;12.33;2.77;;;;;;;;;;5052566;28;20044;-78
2022/11/07 12:05:11;;;;;;;10.50;2.97;;;;;;;13.79;95.97;68299.84;5052012;28;20984;-78
2022/11/07 12:08:05;;;;;;;11.30;2.75;;;;;;;13.73;95.87;68293.56;5056148;28;20044;-77
2022/11/07 12:10:41;;;;;;;11.40;2.38;;;;;;;13.72;96.14;68293.00;5056607;28;20383;-78
2022/11/07 12:13:39;;;;;;;12.48;2.90;;;;;;;13.70;95.95;68287.50;5053260;28;20067;-78
2022/11/07 12:16:15;;;;;;;9.68;2.55;;;;;;;;;;5048396;28;20135;-76
2022/11/07 12:18:59;;;;;;;12.27;2.53;;;;;;;;;;5046817;28;20072;-76
2022/11/07 12:21:32;;;;;;;12.13;2.78;;;;;;;13.66;95.94;68291.50;5060640;28;20052;-76
2022/11/07 12:24:08;;;;;;;8.70;2.63;;;;;;;13.65;95.93;68285.03;5048607;28;20106;-76
2022/11/07 12:26:49;;;;;;;10.82;2.55;;;;;;;13.65;96.21;68285.03;5045276;28;20553;-75
2022/11/07 12:29:14;;;;;;;13.77;3.33;;;;;;;;;;5050123;28;20048;-78
2022/11/07 12:32:07;;;;;;;14.27;2.60;;;;;;;13.63;95.90;68282.19;5051802;28;20037;-76
2022/11/07 12:34:50;;;;;;;7.13;2.40;;;;;;;13.62;96.42;68281.63;5061649;28;20306;-78
2022/11/07 12:37:32;;;;;;;15.25;2.42;;;;;;;;;;5045310;28;20553;-78